createdAt,value
2014-09-11T00:00:36.818Z,17.28
2014-09-11T00:01:41.509Z,17.13
2014-09-11T00:02:46.479Z,17.22
2014-09-11T00:03:51.169Z,17.36
2014-09-11T00:04:55.843Z,17.54
2014-09-11T00:06:00.532Z,17.33
2014-09-11T00:07:05.222Z,17.44
2014-09-11T00:08:10.193Z,17.44
2014-09-11T00:09:14.883Z,17.48
2014-09-11T00:10:19.557Z,17.36
2014-09-11T00:11:24.245Z,17.63
2014-09-11T00:12:29.232Z,17.64
2014-09-11T00:13:33.906Z,17.46
2014-09-11T00:14:38.893Z,17.38
2014-09-11T00:15:43.879Z,17.04
2014-09-11T00:16:48.552Z,17.28
2014-09-11T00:17:53.837Z,17.12
2014-09-11T00:18:58.510Z,17.36
2014-09-11T00:20:03.200Z,17.33
2014-09-11T00:21:08.186Z,17.12
2014-09-11T00:22:13.173Z,17.16
2014-09-11T00:23:18.159Z,17.3
2014-09-11T00:24:23.130Z,17.33
2014-09-11T00:25:27.132Z,17.32
2014-09-11T00:26:31.806Z,17.45
2014-09-11T00:27:36.495Z,17.16
2014-09-11T00:28:41.186Z,16.94
2014-09-11T00:29:45.859Z,16.74
2014-09-11T00:30:50.846Z,16.78
2014-09-11T00:31:55.534Z,16.8
2014-09-11T00:33:00.208Z,16.7
2014-09-11T00:34:04.898Z,16.82
2014-09-11T00:35:09.573Z,16.8
2014-09-11T00:36:14.262Z,17
2014-09-11T00:37:19.249Z,17.07
2014-09-11T00:38:23.251Z,17.31
2014-09-11T00:39:28.221Z,17.22
2014-09-11T00:40:32.911Z,17.24
2014-09-11T00:41:37.882Z,17.31
2014-09-11T00:42:42.869Z,17.18
2014-09-11T00:43:47.558Z,17.26
2014-09-11T00:44:52.528Z,17.16
2014-09-11T00:45:57.218Z,17.3
2014-09-11T00:47:01.892Z,17.21
2014-09-11T00:48:06.582Z,17.18
2014-09-11T00:49:11.256Z,17.06
2014-09-11T00:50:15.945Z,16.9
2014-09-11T00:51:20.619Z,17.12
2014-09-11T00:52:25.606Z,17.3
2014-09-11T00:53:30.295Z,17.24
2014-09-11T00:54:34.970Z,17.01
2014-09-11T00:55:39.659Z,17.02
2014-09-11T00:56:44.645Z,17.12
2014-09-11T00:57:49.320Z,17.12
2014-09-11T00:58:54.009Z,17.2
2014-09-11T00:59:59.010Z,17.22
2014-09-11T01:01:03.684Z,16.8
2014-09-11T01:02:08.375Z,16.78
2014-09-11T01:03:13.345Z,16.49
2014-09-11T01:04:18.332Z,16.52
2014-09-11T01:05:23.006Z,16.5
2014-09-11T01:06:27.695Z,16.76
2014-09-11T01:07:32.369Z,16.93
2014-09-11T01:08:37.059Z,16.79
2014-09-11T01:09:41.732Z,16.69
2014-09-11T01:10:46.423Z,16.98
2014-09-11T01:11:51.112Z,16.8
2014-09-11T01:12:56.082Z,16.82
2014-09-11T01:14:01.070Z,16.98
2014-09-11T01:15:05.742Z,16.92
2014-09-11T01:16:10.729Z,16.88
2014-09-11T01:17:15.404Z,16.8
2014-09-11T01:18:20.093Z,16.85
2014-09-11T01:19:24.767Z,16.78
2014-09-11T01:20:29.457Z,16.9
2014-09-11T01:21:34.130Z,16.98
2014-09-11T01:22:38.117Z,17.25
2014-09-11T01:23:42.806Z,17.16
2014-09-11T01:24:47.496Z,17.23
2014-09-11T01:25:52.170Z,17.11
2014-09-11T01:26:56.859Z,16.78
2014-09-11T01:28:01.534Z,16.86
2014-09-11T01:29:06.224Z,16.86
2014-09-11T01:30:10.896Z,16.77
2014-09-11T01:31:15.586Z,16.76
2014-09-11T01:32:20.261Z,16.6
2014-09-11T01:33:25.247Z,16.87
2014-09-11T01:34:30.218Z,16.96
2014-09-11T01:35:34.907Z,16.75
2014-09-11T01:36:39.581Z,17.16
2014-09-11T01:37:44.568Z,17.18
2014-09-11T01:38:49.242Z,17.11
2014-09-11T01:39:53.932Z,17.02
2014-09-11T01:40:58.606Z,16.92
2014-09-11T01:42:03.591Z,16.92
2014-09-11T01:43:08.265Z,16.96
2014-09-11T01:44:13.252Z,17.06
2014-09-11T01:45:17.925Z,16.79
2014-09-11T01:46:22.616Z,16.86
2014-09-11T01:47:27.602Z,17.15
2014-09-11T01:48:32.275Z,17.14
2014-09-11T01:49:36.966Z,17.08
2014-09-11T01:50:41.640Z,16.71
2014-09-11T01:51:46.329Z,16.79
2014-09-11T01:52:51.003Z,16.8
2014-09-11T01:53:55.989Z,16.56
2014-09-11T01:55:00.679Z,16.74
2014-09-11T01:56:05.650Z,16.76
2014-09-11T01:57:10.340Z,16.92
2014-09-11T01:58:15.014Z,16.92
2014-09-11T01:59:19.702Z,16.86
2014-09-11T02:00:24.721Z,16.72
2014-09-11T02:01:29.411Z,16.74
2014-09-11T02:02:34.084Z,16.7
2014-09-11T02:03:39.071Z,16.6
2014-09-11T02:04:43.745Z,16.73
2014-09-11T02:05:48.434Z,16.88
2014-09-11T02:06:53.108Z,16.75
2014-09-11T02:07:57.782Z,16.85
2014-09-11T02:09:02.808Z,16.97
2014-09-11T02:10:07.523Z,16.84
2014-09-11T02:11:12.255Z,16.92
2014-09-11T02:12:16.970Z,16.76
2014-09-11T02:13:21.693Z,16.61
2014-09-11T02:14:26.397Z,16.46
2014-09-11T02:15:31.382Z,16.5
2014-09-11T02:16:36.087Z,16.33
2014-09-11T02:17:41.088Z,16.52
2014-09-11T02:18:45.787Z,16.3
2014-09-11T02:19:50.466Z,16.52
2014-09-11T02:20:55.161Z,16.62
2014-09-11T02:21:59.840Z,16.51
2014-09-11T02:23:04.534Z,16.64
2014-09-11T02:24:09.507Z,16.62
2014-09-11T02:25:14.199Z,16.66
2014-09-11T02:26:18.874Z,16.58
2014-09-11T02:27:23.565Z,16.38
2014-09-11T02:28:28.241Z,16.6
2014-09-11T02:29:32.931Z,16.71
2014-09-11T02:30:37.605Z,16.58
2014-09-11T02:31:42.296Z,16.83
2014-09-11T02:32:46.971Z,16.72
2014-09-11T02:33:51.660Z,16.46
2014-09-11T02:34:56.335Z,16.47
2014-09-11T02:36:01.025Z,16.51
2014-09-11T02:37:05.697Z,16.52
2014-09-11T02:38:10.388Z,16.55
2014-09-11T02:39:15.359Z,16.59
2014-09-11T02:40:20.047Z,16.36
2014-09-11T02:41:25.019Z,16.63
2014-09-11T02:42:30.005Z,16.84
2014-09-11T02:43:34.679Z,16.85
2014-09-11T02:44:39.369Z,16.76
2014-09-11T02:45:44.043Z,16.94
2014-09-11T02:46:48.733Z,16.64
2014-09-11T02:47:53.423Z,16.47
2014-09-11T02:48:58.111Z,16.42
2014-09-11T02:50:02.786Z,16.51
2014-09-11T02:51:07.474Z,16.48
2014-09-11T02:52:12.164Z,16.39
2014-09-11T02:53:16.839Z,16.34
2014-09-11T02:54:21.528Z,16.52
2014-09-11T02:55:26.201Z,16.45
2014-09-11T02:56:30.892Z,16.24
2014-09-11T02:57:35.862Z,16.36
2014-09-11T02:58:40.849Z,16.33
2014-09-11T02:59:45.835Z,16.61
2014-09-11T03:00:50.510Z,16.88
2014-09-11T03:01:55.200Z,16.72
2014-09-11T03:02:59.872Z,16.58
2014-09-11T03:04:04.563Z,16.67
2014-09-11T03:05:09.237Z,16.62
2014-09-11T03:06:13.926Z,16.38
2014-09-11T03:07:18.599Z,16.61
2014-09-11T03:08:23.290Z,16.47
2014-09-11T03:09:28.260Z,16.4
2014-09-11T03:10:32.950Z,16.66
2014-09-11T03:11:37.624Z,16.89
2014-09-11T03:12:42.313Z,16.52
2014-09-11T03:13:46.987Z,16.51
2014-09-11T03:14:51.677Z,16.7
2014-09-11T03:15:56.382Z,16.56
2014-09-11T03:17:01.056Z,16.6
2014-09-11T03:18:05.058Z,16.47
2014-09-11T03:19:10.044Z,16.69
2014-09-11T03:20:14.719Z,16.72
2014-09-11T03:21:19.705Z,16.72
2014-09-11T03:22:24.676Z,16.79
2014-09-11T03:23:29.661Z,16.89
2014-09-11T03:24:34.632Z,16.82
2014-09-11T03:25:39.323Z,16.72
2014-09-11T03:26:44.309Z,16.85
2014-09-11T03:27:48.983Z,16.94
2014-09-11T03:28:53.672Z,16.76
2014-09-11T03:29:58.643Z,16.82
2014-09-11T03:31:03.334Z,16.76
2014-09-11T03:32:08.007Z,16.54
2014-09-11T03:33:12.697Z,16.67
2014-09-11T03:34:17.371Z,16.56
2014-09-11T03:35:22.060Z,16.71
2014-09-11T03:36:27.030Z,16.76
2014-09-11T03:37:31.721Z,16.82
2014-09-11T03:38:36.395Z,16.7
2014-09-11T03:39:41.084Z,16.83
2014-09-11T03:40:45.774Z,16.87
2014-09-11T03:41:50.447Z,16.42
2014-09-11T03:42:55.434Z,16.56
2014-09-11T03:44:00.108Z,16.6
2014-09-11T03:45:04.813Z,16.75
2014-09-11T03:46:09.784Z,16.48
2014-09-11T03:47:14.474Z,16.59
2014-09-11T03:48:19.148Z,16.65
2014-09-11T03:49:23.836Z,16.6
2014-09-11T03:50:28.510Z,16.77
2014-09-11T03:51:33.201Z,16.62
2014-09-11T03:52:38.187Z,16.5
2014-09-11T03:53:43.174Z,16.36
2014-09-11T03:54:47.847Z,16.34
2014-09-11T03:55:52.537Z,16.32
2014-09-11T03:56:57.211Z,16.28
2014-09-11T03:58:01.900Z,16.13
2014-09-11T03:59:06.574Z,16.37
2014-09-11T04:00:11.265Z,16.4
2014-09-11T04:01:16.234Z,16.52
2014-09-11T04:02:21.221Z,16.35
2014-09-11T04:03:25.895Z,16.42
2014-09-11T04:04:30.584Z,16.4
2014-09-11T04:05:35.259Z,16.3
2014-09-11T04:06:39.948Z,16.15
2014-09-11T04:07:44.621Z,16.25
2014-09-11T04:08:49.312Z,16.26
2014-09-11T04:09:54.001Z,16.32
2014-09-11T04:10:58.675Z,16.7
2014-09-11T04:12:03.364Z,16.7
2014-09-11T04:13:08.336Z,16.57
2014-09-11T04:14:13.322Z,16.42
2014-09-11T04:15:17.996Z,16.59
2014-09-11T04:16:22.685Z,16.72
2014-09-11T04:17:27.359Z,16.64
2014-09-11T04:18:32.049Z,16.68
2014-09-11T04:19:36.099Z,16.68
2014-09-11T04:20:40.771Z,16.5
2014-09-11T04:21:45.462Z,16.42
2014-09-11T04:22:50.136Z,16.59
2014-09-11T04:23:54.824Z,16.63
2014-09-11T04:24:59.514Z,16.35
2014-09-11T04:26:04.189Z,16.59
2014-09-11T04:27:08.894Z,16.34
2014-09-11T04:28:13.583Z,16.64
2014-09-11T04:29:18.273Z,16.55
2014-09-11T04:30:22.947Z,16.42
2014-09-11T04:31:27.636Z,16.56
2014-09-11T04:32:32.623Z,16.68
2014-09-11T04:33:37.296Z,16.66
2014-09-11T04:34:41.987Z,16.61
2014-09-11T04:35:46.988Z,16.26
2014-09-11T04:36:51.663Z,16.34
2014-09-11T04:37:56.648Z,16.44
2014-09-11T04:39:01.323Z,16.68
2014-09-11T04:40:06.013Z,16.4
2014-09-11T04:41:10.999Z,16.32
2014-09-11T04:42:15.673Z,16.02
2014-09-11T04:43:20.362Z,15.93
2014-09-11T04:44:25.052Z,16.16
2014-09-11T04:45:30.038Z,15.99
2014-09-11T04:46:35.010Z,16.22
2014-09-11T04:47:39.698Z,16.3
2014-09-11T04:48:44.686Z,16.4
2014-09-11T04:49:49.985Z,16.53
2014-09-11T04:50:54.954Z,16.37
2014-09-11T04:51:59.645Z,16.54
2014-09-11T04:53:04.630Z,16.52
2014-09-11T04:54:09.602Z,16.62
2014-09-11T04:55:14.292Z,16.66
2014-09-11T04:56:18.981Z,16.62
2014-09-11T04:57:23.655Z,16.93
2014-09-11T04:58:28.344Z,16.96
2014-09-11T04:59:33.331Z,16.91
2014-09-11T05:00:38.005Z,16.86
2014-09-11T05:01:42.710Z,16.81
2014-09-11T05:02:47.696Z,16.77
2014-09-11T05:03:52.387Z,16.83
2014-09-11T05:04:57.075Z,16.76
2014-09-11T05:06:01.750Z,16.89
2014-09-11T05:07:06.735Z,16.74
2014-09-11T05:08:11.425Z,16.87
2014-09-11T05:09:16.100Z,16.99
2014-09-11T05:10:20.789Z,16.93
2014-09-11T05:11:25.776Z,16.86
2014-09-11T05:12:30.450Z,16.84
2014-09-11T05:13:34.452Z,16.94
2014-09-11T05:14:39.142Z,16.9
2014-09-11T05:15:44.127Z,17.02
2014-09-11T05:16:48.801Z,16.84
2014-09-11T05:17:53.788Z,16.88
2014-09-11T05:18:58.477Z,16.84
2014-09-11T05:20:03.152Z,16.79
2014-09-11T05:21:07.841Z,16.87
2014-09-11T05:22:12.530Z,17
2014-09-11T05:23:17.502Z,16.76
2014-09-11T05:24:22.190Z,16.87
2014-09-11T05:25:26.880Z,16.81
2014-09-11T05:26:31.555Z,16.73
2014-09-11T05:27:36.244Z,16.97
2014-09-11T05:28:41.231Z,16.84
2014-09-11T05:29:45.904Z,16.6
2014-09-11T05:30:50.610Z,16.6
2014-09-11T05:31:55.580Z,16.59
2014-09-11T05:33:00.567Z,16.42
2014-09-11T05:34:05.256Z,16.34
2014-09-11T05:35:09.947Z,16.48
2014-09-11T05:36:14.635Z,16.68
2014-09-11T05:37:19.607Z,16.87
2014-09-11T05:38:24.296Z,16.58
2014-09-11T05:39:29.283Z,16.72
2014-09-11T05:40:33.957Z,16.5
2014-09-11T05:41:38.943Z,16.35
2014-09-11T05:42:43.633Z,16.61
2014-09-11T05:43:48.306Z,16.53
2014-09-11T05:44:52.996Z,16.66
2014-09-11T05:45:57.685Z,16.73
2014-09-11T05:47:02.359Z,16.98
2014-09-11T05:48:07.346Z,17.1
2014-09-11T05:49:12.035Z,17.11
2014-09-11T05:50:16.726Z,16.94
2014-09-11T05:51:21.399Z,17.16
2014-09-11T05:52:26.089Z,17.43
2014-09-11T05:53:30.779Z,17.5
2014-09-11T05:54:35.484Z,17.58
2014-09-11T05:55:40.158Z,17.65
2014-09-11T05:56:44.863Z,17.82
2014-09-11T05:57:49.849Z,17.9
2014-09-11T05:58:54.539Z,18.2
2014-09-11T05:59:59.229Z,18.91
2014-09-11T06:01:04.214Z,19.48
2014-09-11T06:02:08.905Z,20
2014-09-11T06:03:13.579Z,19.91
2014-09-11T06:04:18.267Z,20.38
2014-09-11T06:05:22.958Z,21.04
2014-09-11T06:06:27.647Z,21.09
2014-09-11T06:07:32.320Z,21.87
2014-09-11T06:08:37.011Z,22.22
2014-09-11T06:09:41.699Z,22.48
2014-09-11T06:10:46.687Z,22.16
2014-09-11T06:11:51.360Z,22.67
2014-09-11T06:12:56.347Z,23.23
2014-09-11T06:14:01.052Z,23.61
2014-09-11T06:15:05.726Z,23.66
2014-09-11T06:16:10.712Z,23.34
2014-09-11T06:17:15.402Z,23.2
2014-09-11T06:18:20.091Z,23.9
2014-09-11T06:19:25.063Z,23.96
2014-09-11T06:20:29.751Z,23.78
2014-09-11T06:21:34.442Z,24.62
2014-09-11T06:22:39.130Z,24.94
2014-09-11T06:23:43.821Z,25.24
2014-09-11T06:24:48.510Z,25.57
2014-09-11T06:25:53.200Z,25.31
2014-09-11T06:26:57.889Z,25.47
2014-09-11T06:28:02.563Z,25.47
2014-09-11T06:29:07.253Z,25.12
2014-09-11T06:30:11.958Z,25.18
2014-09-11T06:31:16.647Z,25.3
2014-09-11T06:32:21.337Z,26
2014-09-11T06:33:26.355Z,26.77
2014-09-11T06:34:31.045Z,26.88
2014-09-11T06:35:35.735Z,26.75
2014-09-11T06:36:40.423Z,26.66
2014-09-11T06:37:45.114Z,26.96
2014-09-11T06:38:50.099Z,27.61
2014-09-11T06:39:54.789Z,27.86
2014-09-11T06:40:59.479Z,27.88
2014-09-11T06:42:04.168Z,28.21
2014-09-11T06:43:09.155Z,28.21
2014-09-11T06:44:14.141Z,29.36
2014-09-11T06:45:18.831Z,29.83
2014-09-11T06:46:23.520Z,30.18
2014-09-11T06:47:28.210Z,30.51
2014-09-11T06:48:32.899Z,31.07
2014-09-11T06:49:37.590Z,30.74
2014-09-11T06:50:42.576Z,30.97
2014-09-11T06:51:47.266Z,31.02
2014-09-11T06:52:51.971Z,31.7
2014-09-11T06:53:56.659Z,32.01
2014-09-11T06:55:01.350Z,31.73
2014-09-11T06:56:06.038Z,31.65
2014-09-11T06:57:11.041Z,31.06
2014-09-11T06:58:15.731Z,30.8
2014-09-11T06:59:20.718Z,31.12
2014-09-11T07:00:25.407Z,31.56
2014-09-11T07:01:30.097Z,31.2
2014-09-11T07:02:34.771Z,30
2014-09-11T07:03:39.756Z,28.07
2014-09-11T07:04:44.462Z,26.88
2014-09-11T07:05:48.464Z,26.09
2014-09-11T07:06:53.450Z,25.4
2014-09-11T07:07:58.125Z,24.16
2014-09-11T07:09:02.813Z,23.74
2014-09-11T07:10:07.504Z,23.63
2014-09-11T07:11:12.490Z,23.07
2014-09-11T07:12:17.476Z,22.9
2014-09-11T07:13:22.150Z,22.27
2014-09-11T07:14:27.137Z,21.97
2014-09-11T07:15:31.826Z,21.86
2014-09-11T07:16:36.516Z,21.97
2014-09-11T07:17:41.206Z,21.61
2014-09-11T07:18:45.879Z,21.2
2014-09-11T07:19:50.569Z,21.39
2014-09-11T07:20:55.258Z,21.22
2014-09-11T07:21:59.933Z,21.52
2014-09-11T07:23:04.621Z,21.76
2014-09-11T07:24:09.609Z,21.32
2014-09-11T07:25:14.283Z,21.63
2014-09-11T07:26:18.988Z,21.18
2014-09-11T07:27:23.677Z,21.56
2014-09-11T07:28:28.351Z,21.71
2014-09-11T07:29:33.041Z,21.86
2014-09-11T07:30:37.715Z,21.9
2014-09-11T07:31:42.702Z,21.98
2014-09-11T07:32:47.390Z,21.81
2014-09-11T07:33:52.064Z,21.65
2014-09-11T07:34:56.754Z,21.69
2014-09-11T07:36:01.725Z,21.62
2014-09-11T07:37:06.431Z,21.7
2014-09-11T07:38:11.120Z,21.35
2014-09-11T07:39:15.794Z,21.46
2014-09-11T07:40:20.484Z,21.2
2014-09-11T07:41:25.157Z,21.32
2014-09-11T07:42:29.847Z,21.34
2014-09-11T07:43:34.521Z,21.18
2014-09-11T07:44:39.210Z,20.9
2014-09-11T07:45:43.900Z,20.96
2014-09-11T07:46:48.605Z,21.43
2014-09-11T07:47:53.279Z,21
2014-09-11T07:48:58.265Z,20.9
2014-09-11T07:50:02.940Z,20.31
2014-09-11T07:51:07.629Z,20.46
2014-09-11T07:52:12.302Z,20.63
2014-09-11T07:53:16.993Z,20.97
2014-09-11T07:54:21.682Z,20.32
2014-09-11T07:55:26.372Z,20.49
2014-09-11T07:56:31.061Z,20.41
2014-09-11T07:57:35.735Z,20.49
2014-09-11T07:58:40.425Z,20.72
2014-09-11T07:59:45.411Z,20.46
2014-09-11T08:00:50.086Z,20.42
2014-09-11T08:01:54.775Z,20.6
2014-09-11T08:02:59.465Z,20.92
2014-09-11T08:04:04.155Z,21.06
2014-09-11T08:05:09.124Z,20.96
2014-09-11T08:06:14.112Z,21.25
2014-09-11T08:07:18.786Z,21.05
2014-09-11T08:08:23.475Z,19.82
2014-09-11T08:09:28.461Z,19.62
2014-09-11T08:10:33.134Z,20.34
2014-09-11T08:11:37.825Z,20.82
2014-09-11T08:12:42.811Z,20.64
2014-09-11T08:13:47.485Z,20.77
2014-09-11T08:14:52.175Z,20.54
2014-09-11T08:15:56.864Z,20.55
2014-09-11T08:17:01.539Z,20.52
2014-09-11T08:18:06.227Z,20.54
2014-09-11T08:19:10.917Z,20.18
2014-09-11T08:20:15.592Z,20.43
2014-09-11T08:21:20.280Z,20.34
2014-09-11T08:22:25.268Z,20.6
2014-09-11T08:23:29.942Z,20.4
2014-09-11T08:24:34.631Z,20.35
2014-09-11T08:25:39.321Z,20.51
2014-09-11T08:26:44.010Z,20.38
2014-09-11T08:27:48.684Z,20.43
2014-09-11T08:28:53.389Z,20.47
2014-09-11T08:29:58.375Z,20.82
2014-09-11T08:31:03.065Z,20.96
2014-09-11T08:32:08.051Z,20.69
2014-09-11T08:33:13.023Z,20.93
2014-09-11T08:34:17.712Z,20.52
2014-09-11T08:35:22.402Z,20.54
2014-09-11T08:36:27.091Z,20.3
2014-09-11T08:37:31.781Z,20.58
2014-09-11T08:38:36.455Z,20.37
2014-09-11T08:39:41.144Z,20.28
2014-09-11T08:40:45.850Z,20.1
2014-09-11T08:41:50.820Z,20.24
2014-09-11T08:42:55.510Z,19.9
2014-09-11T08:44:00.184Z,20.11
2014-09-11T08:45:04.873Z,20.1
2014-09-11T08:46:09.875Z,20.11
2014-09-11T08:47:14.550Z,19.91
2014-09-11T08:48:19.535Z,19.86
2014-09-11T08:49:24.209Z,19.95
2014-09-11T08:50:28.915Z,20.12
2014-09-11T08:51:33.588Z,19.68
2014-09-11T08:52:38.279Z,19.5
2014-09-11T08:53:42.953Z,19.96
2014-09-11T08:54:47.641Z,19.9
2014-09-11T08:55:52.347Z,19.94
2014-09-11T08:56:57.020Z,19.74
2014-09-11T08:58:01.711Z,19.7
2014-09-11T08:59:06.385Z,19.84
2014-09-11T09:00:11.075Z,19.84
2014-09-11T09:01:15.748Z,19.86
2014-09-11T09:02:20.437Z,19.44
2014-09-11T09:03:25.424Z,19.34
2014-09-11T09:04:30.098Z,19.57
2014-09-11T09:05:34.787Z,19.46
2014-09-11T09:06:39.462Z,19.18
2014-09-11T09:07:44.152Z,19.14
2014-09-11T09:08:48.824Z,19
2014-09-11T09:09:53.514Z,19.08
2014-09-11T09:10:58.486Z,19.19
2014-09-11T09:12:03.175Z,19.48
2014-09-11T09:13:07.849Z,19.58
2014-09-11T09:14:12.835Z,19.78
2014-09-11T09:15:17.509Z,19.48
2014-09-11T09:16:22.199Z,19.42
2014-09-11T09:17:27.185Z,19.32
2014-09-11T09:18:31.860Z,19.3
2014-09-11T09:19:36.549Z,19.2
2014-09-11T09:20:41.519Z,19.05
2014-09-11T09:21:46.210Z,19.45
2014-09-11T09:22:50.899Z,19.38
2014-09-11T09:23:55.572Z,19.37
2014-09-11T09:25:00.560Z,19.33
2014-09-11T09:26:05.546Z,19.48
2014-09-11T09:27:10.235Z,19.72
2014-09-11T09:28:14.909Z,19.57
2014-09-11T09:29:19.896Z,19.6
2014-09-11T09:30:24.866Z,19.32
2014-09-11T09:31:29.557Z,19.25
2014-09-11T09:32:34.230Z,19.37
2014-09-11T09:33:39.216Z,19.52
2014-09-11T09:34:43.907Z,19.48
2014-09-11T09:35:48.190Z,19.22
2014-09-11T09:36:52.878Z,19.04
2014-09-11T09:37:57.569Z,19.43
2014-09-11T09:39:02.258Z,19.39
2014-09-11T09:40:07.245Z,19.54
2014-09-11T09:41:11.934Z,19.42
2014-09-11T09:42:16.607Z,19.46
2014-09-11T09:43:21.595Z,19.3
2014-09-11T09:44:26.347Z,19.3
2014-09-11T09:45:31.020Z,19.24
2014-09-11T09:46:35.711Z,19.12
2014-09-11T09:47:40.696Z,19.28
2014-09-11T09:48:45.370Z,19.44
2014-09-11T09:49:50.357Z,19.36
2014-09-11T09:50:55.030Z,19.4
2014-09-11T09:52:00.018Z,19.3
2014-09-11T09:53:04.989Z,19.43
2014-09-11T09:54:09.678Z,19.52
2014-09-11T09:55:14.368Z,19.42
2014-09-11T09:56:19.338Z,19.6
2014-09-11T09:57:24.028Z,19.44
2014-09-11T09:58:28.717Z,19.62
2014-09-11T09:59:33.689Z,19.52
2014-09-11T10:00:38.674Z,19.55
2014-09-11T10:01:43.348Z,19.61
2014-09-11T10:02:48.039Z,19.44
2014-09-11T10:03:53.024Z,19.57
2014-09-11T10:04:58.011Z,19.46
2014-09-11T10:06:02.684Z,19.43
2014-09-11T10:07:07.375Z,19.42
2014-09-11T10:08:12.360Z,19.7
2014-09-11T10:09:17.332Z,19.98
2014-09-11T10:10:22.036Z,19.99
2014-09-11T10:11:27.024Z,19.82
2014-09-11T10:12:31.713Z,20.02
2014-09-11T10:13:36.684Z,20
2014-09-11T10:14:41.358Z,19.96
2014-09-11T10:15:46.345Z,19.94
2014-09-11T10:16:51.035Z,19.63
2014-09-11T10:17:55.707Z,20.03
2014-09-11T10:19:00.398Z,19.78
2014-09-11T10:20:05.369Z,19.64
2014-09-11T10:21:10.057Z,19.65
2014-09-11T10:22:14.732Z,19.43
2014-09-11T10:23:19.422Z,19.53
2014-09-11T10:24:24.408Z,19.48
2014-09-11T10:25:29.082Z,19.42
2014-09-11T10:26:33.771Z,19.48
2014-09-11T10:27:38.445Z,19.58
2014-09-11T10:28:43.135Z,19.66
2014-09-11T10:29:47.809Z,19.6
2014-09-11T10:30:52.796Z,19.63
2014-09-11T10:31:57.766Z,19.73
2014-09-11T10:33:02.455Z,19.88
2014-09-11T10:34:07.146Z,19.74
2014-09-11T10:35:11.819Z,19.68
2014-09-11T10:36:16.509Z,19.73
2014-09-11T10:37:21.480Z,19.76
2014-09-11T10:38:26.168Z,19.79
2014-09-11T10:39:31.156Z,19.63
2014-09-11T10:40:35.830Z,19.83
2014-09-11T10:41:40.816Z,19.95
2014-09-11T10:42:45.505Z,19.98
2014-09-11T10:43:50.476Z,20.06
2014-09-11T10:44:55.463Z,20
2014-09-11T10:46:00.153Z,19.92
2014-09-11T10:47:05.139Z,19.82
2014-09-11T10:48:09.812Z,19.88
2014-09-11T10:49:14.800Z,20.05
2014-09-11T10:50:19.488Z,19.93
2014-09-11T10:51:24.163Z,19.67
2014-09-11T10:52:28.853Z,19.64
2014-09-11T10:53:33.542Z,19.69
2014-09-11T10:54:38.513Z,19.56
2014-09-11T10:55:43.202Z,19.68
2014-09-11T10:56:47.876Z,19.82
2014-09-11T10:57:52.566Z,19.67
2014-09-11T10:58:56.568Z,19.94
2014-09-11T11:00:01.554Z,20
2014-09-11T11:01:06.525Z,20.18
2014-09-11T11:02:11.214Z,20.11
2014-09-11T11:03:16.186Z,19.68
2014-09-11T11:04:20.875Z,19.9
2014-09-11T11:05:25.548Z,20.02
2014-09-11T11:06:30.239Z,20.11
2014-09-11T11:07:34.913Z,20
2014-09-11T11:08:39.601Z,19.97
2014-09-11T11:09:44.275Z,19.86
2014-09-11T11:10:49.263Z,19.91
2014-09-11T11:11:53.936Z,19.92
2014-09-11T11:12:58.626Z,19.75
2014-09-11T11:14:03.612Z,19.8
2014-09-11T11:15:08.345Z,19.66
2014-09-11T11:16:13.144Z,19.94
2014-09-11T11:17:17.880Z,19.88
2014-09-11T11:18:22.914Z,20.08
2014-09-11T11:19:27.641Z,19.84
2014-09-11T11:20:32.630Z,20.16
2014-09-11T11:21:37.335Z,20.15
2014-09-11T11:22:42.043Z,19.98
2014-09-11T11:23:46.749Z,20.34
2014-09-11T11:24:51.432Z,20.27
2014-09-11T11:25:56.129Z,20.46
2014-09-11T11:27:00.824Z,20.36
2014-09-11T11:28:05.504Z,20.37
2014-09-11T11:29:10.201Z,20.43
2014-09-11T11:30:14.892Z,20.49
2014-09-11T11:31:19.568Z,20.54
2014-09-11T11:32:24.556Z,20.1
2014-09-11T11:33:29.232Z,20.22
2014-09-11T11:34:33.924Z,20.3
2014-09-11T11:35:38.613Z,20.32
2014-09-11T11:36:43.602Z,20.28
2014-09-11T11:37:48.291Z,20.09
2014-09-11T11:38:52.967Z,20.3
2014-09-11T11:39:57.953Z,20.35
2014-09-11T11:41:01.955Z,20.2
2014-09-11T11:42:06.630Z,20.25
2014-09-11T11:43:11.618Z,20.14
2014-09-11T11:44:16.307Z,19.79
2014-09-11T11:45:20.981Z,19.93
2014-09-11T11:46:25.671Z,19.98
2014-09-11T11:47:29.673Z,20.21
2014-09-11T11:48:34.362Z,19.92
2014-09-11T11:49:39.037Z,19.96
2014-09-11T11:50:44.022Z,20.1
2014-09-11T11:51:48.713Z,20.26
2014-09-11T11:52:53.402Z,20.21
2014-09-11T11:53:58.373Z,20.14
2014-09-11T11:55:03.063Z,20.06
2014-09-11T11:56:08.049Z,20.12
2014-09-11T11:57:12.738Z,19.46
2014-09-11T11:58:17.428Z,19.38
2014-09-11T11:59:22.399Z,19.66
2014-09-11T12:00:27.088Z,19.84
2014-09-11T12:01:32.075Z,19.42
2014-09-11T12:02:36.764Z,19.42
2014-09-11T12:03:41.439Z,19.86
2014-09-11T12:04:46.721Z,19.04
2014-09-11T12:05:51.411Z,19.3
2014-09-11T12:06:56.100Z,19.77
2014-09-11T12:08:00.775Z,19.9
2014-09-11T12:09:05.480Z,19.99
2014-09-11T12:10:10.451Z,19.85
2014-09-11T12:11:15.436Z,19.44
2014-09-11T12:12:20.424Z,19.75
2014-09-11T12:13:25.113Z,19.69
2014-09-11T12:14:29.787Z,19.89
2014-09-11T12:15:34.477Z,19.81
2014-09-11T12:16:39.463Z,19.84
2014-09-11T12:17:44.152Z,19.82
2014-09-11T12:18:48.842Z,19.97
2014-09-11T12:19:53.813Z,19.94
2014-09-11T12:20:58.800Z,19.86
2014-09-11T12:22:03.802Z,19.9
2014-09-11T12:23:08.787Z,19.72
2014-09-11T12:24:13.774Z,19.75
2014-09-11T12:25:18.449Z,19.8
2014-09-11T12:26:23.435Z,19.51
2014-09-11T12:27:28.421Z,19.53
2014-09-11T12:28:33.111Z,19.46
2014-09-11T12:29:37.800Z,19.38
2014-09-11T12:30:42.490Z,19.57
2014-09-11T12:31:47.179Z,19.46
2014-09-11T12:32:51.869Z,19.69
2014-09-11T12:33:56.840Z,19.79
2014-09-11T12:35:01.529Z,19.7
2014-09-11T12:36:06.516Z,19.96
2014-09-11T12:37:11.206Z,19.99
2014-09-11T12:38:16.191Z,20.08
2014-09-11T12:39:20.882Z,19.98
2014-09-11T12:40:25.571Z,19.86
2014-09-11T12:41:30.558Z,19.85
2014-09-11T12:42:35.247Z,19.93
2014-09-11T12:43:40.234Z,20.04
2014-09-11T12:44:44.923Z,20.18
2014-09-11T12:45:49.910Z,20.14
2014-09-11T12:46:54.583Z,20.06
2014-09-11T12:47:59.570Z,20.07
2014-09-11T12:49:04.259Z,19.37
2014-09-11T12:50:08.950Z,19.54
2014-09-11T12:51:13.935Z,19.78
2014-09-11T12:52:17.923Z,19.88
2014-09-11T12:53:22.909Z,20.07
2014-09-11T12:54:27.598Z,20.3
2014-09-11T12:55:32.585Z,20.4
2014-09-11T12:56:37.571Z,20.27
2014-09-11T12:57:42.261Z,20.31
2014-09-11T12:58:46.935Z,20.24
2014-09-11T12:59:51.937Z,20.25
2014-09-11T13:00:56.923Z,20.31
2014-09-11T13:02:01.597Z,20.03
2014-09-11T13:03:06.583Z,20.07
2014-09-11T13:04:11.273Z,20.06
2014-09-11T13:05:15.962Z,19.95
2014-09-11T13:06:20.950Z,20.08
2014-09-11T13:07:25.622Z,20.2
2014-09-11T13:08:30.313Z,20.32
2014-09-11T13:09:35.298Z,20.44
2014-09-11T13:10:39.989Z,20.42
2014-09-11T13:11:44.678Z,19.72
2014-09-11T13:12:49.368Z,19.65
2014-09-11T13:13:54.354Z,20.09
2014-09-11T13:14:59.028Z,20.18
2014-09-11T13:16:03.718Z,20.35
2014-09-11T13:17:08.705Z,20.33
2014-09-11T13:18:13.690Z,20
2014-09-11T13:19:18.364Z,19.9
2014-09-11T13:20:23.352Z,20.22
2014-09-11T13:21:28.024Z,20.4
2014-09-11T13:22:33.012Z,20.46
2014-09-11T13:23:37.701Z,20.6
2014-09-11T13:24:42.374Z,20.73
2014-09-11T13:25:47.065Z,20.68
2014-09-11T13:26:51.739Z,20.36
2014-09-11T13:27:56.725Z,20.52
2014-09-11T13:29:01.414Z,20.62
2014-09-11T13:30:06.088Z,20.58
2014-09-11T13:31:10.778Z,20.73
2014-09-11T13:32:15.764Z,20.66
2014-09-11T13:33:20.455Z,21.02
2014-09-11T13:34:25.721Z,20.8
2014-09-11T13:35:30.709Z,20.39
2014-09-11T13:36:35.383Z,20.62
2014-09-11T13:37:40.369Z,20.36
2014-09-11T13:38:45.058Z,20.17
2014-09-11T13:39:49.732Z,20.23
2014-09-11T13:40:54.719Z,20.59
2014-09-11T13:41:59.408Z,20.51
2014-09-11T13:43:04.379Z,20.58
2014-09-11T13:44:09.068Z,20.5
2014-09-11T13:45:13.758Z,20.32
2014-09-11T13:46:18.432Z,20.26
2014-09-11T13:47:23.138Z,20.34
2014-09-11T13:48:28.108Z,20.63
2014-09-11T13:49:33.095Z,20.5
2014-09-11T13:50:37.785Z,20.53
2014-09-11T13:51:42.457Z,20.51
2014-09-11T13:52:47.148Z,20.39
2014-09-11T13:53:51.837Z,20.3
2014-09-11T13:54:56.807Z,20.18
2014-09-11T13:56:01.795Z,20.14
2014-09-11T13:57:06.781Z,20.2
2014-09-11T13:58:11.767Z,20.08
2014-09-11T13:59:16.440Z,20.04